createdAt,value
2019-01-31T00:00:30.989Z,0.23
2019-01-31T00:01:30.932Z,0.18
2019-01-31T00:02:30.961Z,0.20
2019-01-31T00:03:30.947Z,0.23
2019-01-31T00:04:30.894Z,0.26
2019-01-31T00:05:30.893Z,0.15
2019-01-31T00:06:30.904Z,0.20
2019-01-31T00:07:30.901Z,0.20
2019-01-31T00:08:30.882Z,0.20
2019-01-31T00:09:30.873Z,0.15
2019-01-31T00:10:30.843Z,0.31
2019-01-31T00:11:30.855Z,0.21
2019-01-31T00:12:30.825Z,0.20
2019-01-31T00:13:30.830Z,0.14
2019-01-31T00:14:30.806Z,0.17
2019-01-31T00:15:30.791Z,0.18
2019-01-31T00:16:30.764Z,0.23
2019-01-31T00:17:30.805Z,0.18
2019-01-31T00:18:30.807Z,0.13
2019-01-31T00:19:30.747Z,0.10
2019-01-31T00:20:30.740Z,0.11
2019-01-31T00:21:30.736Z,-0.03
2019-01-31T00:22:30.707Z,0.11
2019-01-31T00:23:30.723Z,0.03
2019-01-31T00:24:30.693Z,-0.01
2019-01-31T00:25:30.668Z,0.00
2019-01-31T00:26:30.655Z,0.03
2019-01-31T00:27:30.665Z,0.02
2019-01-31T00:28:30.641Z,-0.01
2019-01-31T00:29:30.648Z,-0.03
2019-01-31T00:30:30.618Z,-0.03
2019-01-31T00:31:30.605Z,-0.03
2019-01-31T00:32:30.609Z,-0.08
2019-01-31T00:33:30.597Z,-0.04
2019-01-31T00:34:30.610Z,-0.14
2019-01-31T00:35:30.560Z,-0.03
2019-01-31T00:36:30.582Z,-0.08
2019-01-31T00:37:30.532Z,-0.11
2019-01-31T00:38:30.522Z,-0.19
2019-01-31T00:39:30.588Z,-0.14
2019-01-31T00:40:30.516Z,-0.18
2019-01-31T00:41:30.492Z,-0.21
2019-01-31T00:42:30.495Z,-0.25
2019-01-31T00:43:30.467Z,-0.31
2019-01-31T00:44:30.505Z,-0.29
2019-01-31T00:45:30.455Z,-0.28
2019-01-31T00:46:30.453Z,-0.26
2019-01-31T00:47:30.428Z,-0.39
2019-01-31T00:48:30.445Z,-0.44
2019-01-31T00:49:30.437Z,-0.42
2019-01-31T00:50:30.431Z,-0.49
2019-01-31T00:51:30.380Z,-0.49
2019-01-31T00:52:30.396Z,-0.57
2019-01-31T00:53:30.366Z,-0.51
2019-01-31T00:54:30.372Z,-0.52
2019-01-31T00:55:30.335Z,-0.51
2019-01-31T00:56:30.350Z,-0.52
2019-01-31T00:57:30.344Z,-0.55
2019-01-31T00:58:30.324Z,-0.54
2019-01-31T00:59:30.318Z,-0.54
2019-01-31T01:00:30.311Z,-0.55
2019-01-31T01:01:30.324Z,-0.67
2019-01-31T01:02:30.286Z,-0.62
2019-01-31T01:03:30.276Z,-0.70
2019-01-31T01:04:30.269Z,-0.64
2019-01-31T01:05:30.275Z,-0.75
2019-01-31T01:06:30.251Z,-0.72
2019-01-31T01:07:30.216Z,-0.64
2019-01-31T01:08:30.209Z,-0.72
2019-01-31T01:09:30.207Z,-0.73
2019-01-31T01:10:30.220Z,-0.70
2019-01-31T01:11:30.168Z,-0.79
2019-01-31T01:12:30.155Z,-0.76
2019-01-31T01:13:30.145Z,-0.79
2019-01-31T01:14:30.179Z,-0.70
2019-01-31T01:15:30.142Z,-0.73
2019-01-31T01:16:30.128Z,-0.79
2019-01-31T01:17:30.111Z,-0.79
2019-01-31T01:18:30.112Z,-0.85
2019-01-31T01:19:30.088Z,-0.86
2019-01-31T01:20:30.084Z,-0.94
2019-01-31T01:21:30.096Z,-0.89
2019-01-31T01:22:30.087Z,-0.83
2019-01-31T01:23:30.054Z,-0.85
2019-01-31T01:24:30.037Z,-0.97
2019-01-31T01:25:30.019Z,-0.97
2019-01-31T01:26:30.006Z,-1.01
2019-01-31T01:27:30.015Z,-0.97
2019-01-31T01:28:30.015Z,-0.95
2019-01-31T01:29:29.998Z,-0.99
2019-01-31T01:30:29.961Z,-0.99
2019-01-31T02:24:53.854Z,-1.35
2019-01-31T02:25:31.076Z,-1.31
2019-01-31T02:26:31.074Z,-1.40
2019-01-31T02:27:31.052Z,-1.35
2019-01-31T02:28:31.043Z,-1.33
2019-01-31T02:29:31.032Z,-1.34
2019-01-31T02:30:31.047Z,-1.37
2019-01-31T02:31:31.177Z,-1.49
2019-01-31T02:32:31.089Z,-1.48
2019-01-31T02:33:31.007Z,-1.49
2019-01-31T02:34:30.983Z,-1.43
2019-01-31T02:35:31.002Z,-1.48
2019-01-31T02:36:31.107Z,-1.45
2019-01-31T02:37:30.947Z,-1.58
2019-01-31T02:38:30.958Z,-1.55
2019-01-31T02:39:42.310Z,-1.56
2019-01-31T02:40:31.988Z,-1.51
2019-01-31T02:41:30.905Z,-1.52
2019-01-31T02:42:30.923Z,-1.52
2019-01-31T02:43:30.893Z,-1.48
2019-01-31T02:44:30.905Z,-1.46
2019-01-31T02:45:30.893Z,-1.40
2019-01-31T02:46:30.867Z,-1.45
2019-01-31T02:47:30.880Z,-1.43
2019-01-31T02:48:30.855Z,-1.49
2019-01-31T02:49:30.843Z,-1.46
2019-01-31T02:50:30.982Z,-1.35
2019-01-31T02:51:30.830Z,-1.33
2019-01-31T02:52:30.833Z,-1.34
2019-01-31T02:53:30.782Z,-1.34
2019-01-31T02:54:30.780Z,-1.37
2019-01-31T02:55:30.786Z,-1.40
2019-01-31T02:56:30.771Z,-1.33
2019-01-31T02:57:30.740Z,-1.38
2019-01-31T02:58:30.737Z,-1.35
2019-01-31T02:59:30.739Z,-1.31
2019-01-31T03:00:30.769Z,-1.34
2019-01-31T03:01:30.695Z,-1.38
2019-01-31T03:02:30.696Z,-1.25
2019-01-31T03:03:30.689Z,-1.33
2019-01-31T03:04:30.672Z,-1.34
2019-01-31T03:05:30.644Z,-1.34
2019-01-31T03:06:30.631Z,-1.34
2019-01-31T03:07:30.645Z,-1.27
2019-01-31T03:08:30.613Z,-1.28
2019-01-31T03:09:30.635Z,-1.31
2019-01-31T03:10:30.593Z,-1.28
2019-01-31T03:11:30.586Z,-1.25
2019-01-31T03:12:30.616Z,-1.20
2019-01-31T03:13:30.574Z,-1.16
2019-01-31T03:14:30.592Z,-1.17
2019-01-31T03:15:30.558Z,-1.15
2019-01-31T03:16:30.543Z,-1.16
2019-01-31T03:17:30.566Z,-1.16
2019-01-31T03:18:30.503Z,-1.15
2019-01-31T03:19:30.496Z,-1.16
2019-01-31T03:20:30.590Z,-1.16
2019-01-31T03:21:30.502Z,-1.13
2019-01-31T03:22:30.482Z,-1.16
2019-01-31T03:23:30.511Z,-1.16
2019-01-31T03:24:30.460Z,-1.12
2019-01-31T03:25:30.430Z,-1.16
2019-01-31T03:26:30.415Z,-1.07
2019-01-31T03:27:30.412Z,-1.10
2019-01-31T03:28:30.446Z,-1.05
2019-01-31T03:29:30.413Z,-0.95
2019-01-31T03:30:30.406Z,-0.98
2019-01-31T03:31:30.370Z,-1.02
2019-01-31T03:32:30.369Z,-0.94
2019-01-31T03:33:30.398Z,-0.89
2019-01-31T03:34:30.336Z,-0.92
2019-01-31T03:35:30.321Z,-0.92
2019-01-31T03:36:30.335Z,-0.80
2019-01-31T03:37:30.317Z,-0.91
2019-01-31T03:38:30.334Z,-0.76
2019-01-31T03:39:30.281Z,-0.80
2019-01-31T03:40:30.274Z,-0.83
2019-01-31T03:41:30.265Z,-0.82
2019-01-31T03:42:30.280Z,-0.78
2019-01-31T03:43:30.253Z,-0.83
2019-01-31T03:44:30.227Z,-0.83
2019-01-31T03:45:30.215Z,-0.73
2019-01-31T03:46:30.208Z,-0.70
2019-01-31T03:47:30.205Z,-0.75
2019-01-31T03:48:30.212Z,-0.76
2019-01-31T03:49:30.236Z,-0.75
2019-01-31T03:50:30.157Z,-0.75
2019-01-31T03:51:30.189Z,-0.76
2019-01-31T03:52:30.141Z,-0.70
2019-01-31T03:53:30.122Z,-0.78
2019-01-31T03:54:30.216Z,-0.76
2019-01-31T03:55:30.119Z,-0.75
2019-01-31T03:56:30.104Z,-0.70
2019-01-31T03:57:30.098Z,-0.78
2019-01-31T03:58:30.111Z,-0.75
2019-01-31T03:59:30.080Z,-0.73
2019-01-31T04:00:30.379Z,-0.72
2019-01-31T04:01:30.044Z,-0.70
2019-01-31T04:02:30.033Z,-0.67
2019-01-31T04:03:32.550Z,-0.67
2019-01-31T04:04:30.061Z,-0.65
2019-01-31T04:05:30.017Z,-0.62
2019-01-31T04:06:30.013Z,-0.61
2019-01-31T04:07:29.977Z,-0.54
2019-01-31T04:08:29.986Z,-0.58
2019-01-31T04:09:29.968Z,-0.60
2019-01-31T04:10:29.978Z,-0.54
2019-01-31T04:11:29.936Z,-0.46
2019-01-31T04:12:29.947Z,-0.54
2019-01-31T04:13:29.940Z,-0.54
2019-01-31T04:14:29.918Z,-0.42
2019-01-31T04:15:30.153Z,-0.40
2019-01-31T04:16:29.887Z,-0.37
2019-01-31T04:17:29.901Z,-0.37
2019-01-31T04:18:29.862Z,-0.43
2019-01-31T04:19:29.857Z,-0.44
2019-01-31T04:20:29.889Z,-0.33
2019-01-31T04:21:29.875Z,-0.36
2019-01-31T04:22:29.817Z,-0.23
2019-01-31T04:23:29.807Z,-0.28
2019-01-31T04:24:29.818Z,-0.31
2019-01-31T04:25:29.783Z,-0.34
2019-01-31T04:26:29.807Z,-0.29
2019-01-31T04:27:29.764Z,-0.34
2019-01-31T04:28:30.773Z,-0.29
2019-01-31T04:29:29.750Z,-0.39
2019-01-31T04:30:29.776Z,-0.29
2019-01-31T04:31:29.735Z,-0.34
2019-01-31T04:32:29.706Z,-0.28
2019-01-31T04:33:29.703Z,-0.28
2019-01-31T04:34:29.718Z,-0.28
2019-01-31T04:35:29.685Z,-0.28
2019-01-31T04:36:29.680Z,-0.28
2019-01-31T04:37:29.670Z,-0.23
2019-01-31T04:38:29.650Z,-0.18
2019-01-31T04:39:29.662Z,-0.23
2019-01-31T04:40:31.479Z,-0.18
2019-01-31T04:41:29.654Z,-0.22
2019-01-31T04:42:29.624Z,-0.19
2019-01-31T04:43:29.603Z,-0.11
2019-01-31T04:44:29.597Z,-0.22
2019-01-31T04:45:29.583Z,-0.15
2019-01-31T04:46:29.584Z,-0.19
2019-01-31T04:47:29.582Z,-0.16
2019-01-31T04:48:29.536Z,-0.23
2019-01-31T04:49:29.540Z,-0.15
2019-01-31T04:50:29.514Z,-0.28
2019-01-31T04:51:29.519Z,-0.33
2019-01-31T04:52:29.526Z,-0.25
2019-01-31T04:53:29.496Z,-0.23
2019-01-31T04:54:29.467Z,-0.29
2019-01-31T04:55:29.483Z,-0.28
2019-01-31T04:56:29.476Z,-0.28
2019-01-31T04:57:29.487Z,-0.23
2019-01-31T04:58:29.429Z,-0.26
2019-01-31T04:59:29.417Z,-0.28
2019-01-31T05:00:29.444Z,-0.21
2019-01-31T05:01:29.417Z,-0.23
2019-01-31T05:02:29.398Z,-0.19
2019-01-31T05:03:29.391Z,-0.21
2019-01-31T05:04:29.374Z,-0.15
2019-01-31T05:05:29.377Z,-0.18
2019-01-31T05:06:29.356Z,-0.16
2019-01-31T05:07:29.346Z,-0.19
2019-01-31T05:08:30.992Z,-0.14
2019-01-31T05:09:29.316Z,-0.15
2019-01-31T05:10:29.294Z,-0.10
2019-01-31T05:11:29.288Z,-0.14
2019-01-31T05:12:29.306Z,-0.11
2019-01-31T05:13:29.267Z,-0.21
2019-01-31T05:14:29.299Z,-0.14
2019-01-31T05:15:29.245Z,-0.08
2019-01-31T05:16:29.234Z,-0.07
2019-01-31T05:17:29.241Z,-0.07
2019-01-31T05:18:29.208Z,-0.08
2019-01-31T05:19:29.202Z,-0.07
2019-01-31T05:20:29.206Z,-0.08
2019-01-31T05:21:29.196Z,-0.07
2019-01-31T05:22:29.181Z,-0.15
2019-01-31T05:23:29.179Z,-0.08
2019-01-31T05:24:29.143Z,-0.04
2019-01-31T05:25:29.171Z,-0.07
2019-01-31T05:26:29.152Z,-0.10
2019-01-31T05:27:29.159Z,-0.08
2019-01-31T05:28:29.152Z,-0.07
2019-01-31T05:29:29.096Z,-0.11
2019-01-31T05:30:29.098Z,-0.08
2019-01-31T05:31:29.073Z,-0.05
2019-01-31T05:32:29.074Z,-0.10
2019-01-31T05:33:29.078Z,-0.01
2019-01-31T05:34:29.057Z,-0.05
2019-01-31T05:35:29.027Z,-0.04
2019-01-31T05:36:29.018Z,-0.04
2019-01-31T05:37:29.050Z,-0.05
2019-01-31T05:38:29.022Z,0.02
2019-01-31T05:39:28.987Z,-0.03
2019-01-31T05:40:28.987Z,-0.08
2019-01-31T05:41:28.961Z,-0.11
2019-01-31T05:42:28.970Z,-0.05
2019-01-31T05:43:28.988Z,-0.04
2019-01-31T05:44:28.993Z,-0.10
2019-01-31T05:45:28.932Z,-0.10
2019-01-31T05:46:28.911Z,-0.11
2019-01-31T05:47:28.920Z,-0.08
2019-01-31T05:48:28.928Z,-0.10
2019-01-31T05:49:28.897Z,-0.04
2019-01-31T05:50:28.875Z,-0.10
2019-01-31T05:51:28.875Z,-0.07
2019-01-31T05:52:28.865Z,-0.14
2019-01-31T05:53:28.857Z,-0.08
2019-01-31T05:54:28.845Z,-0.10
2019-01-31T05:55:28.835Z,-0.18
2019-01-31T05:56:28.832Z,-0.14
2019-01-31T05:57:28.786Z,-0.26
2019-01-31T05:58:28.795Z,-0.23
2019-01-31T05:59:28.786Z,-0.23
2019-01-31T06:00:28.771Z,-0.18
2019-01-31T06:01:28.774Z,-0.23
2019-01-31T06:02:28.763Z,-0.21
2019-01-31T06:03:28.740Z,-0.23
2019-01-31T06:04:28.709Z,-0.21
2019-01-31T06:05:28.748Z,-0.16
2019-01-31T06:06:28.718Z,-0.23
2019-01-31T06:07:28.683Z,-0.28
2019-01-31T06:08:28.676Z,-0.29
2019-01-31T06:09:28.661Z,-0.34
2019-01-31T06:10:28.703Z,-0.23
2019-01-31T06:11:28.643Z,-0.28
2019-01-31T06:12:28.641Z,-0.28
2019-01-31T06:13:28.629Z,-0.18
2019-01-31T06:14:28.610Z,-0.16
2019-01-31T06:15:28.640Z,-0.21
2019-01-31T06:16:28.585Z,-0.21
2019-01-31T06:17:28.609Z,-0.18
2019-01-31T06:18:28.580Z,-0.19
2019-01-31T06:19:28.551Z,-0.10
2019-01-31T06:20:28.580Z,-0.22
2019-01-31T06:21:28.557Z,-0.16
2019-01-31T06:22:28.557Z,-0.19
2019-01-31T06:23:28.527Z,-0.19
2019-01-31T06:24:28.510Z,-0.11
2019-01-31T06:25:28.556Z,-0.18
2019-01-31T06:26:28.525Z,-0.19
2019-01-31T06:27:28.473Z,-0.15
2019-01-31T06:28:28.480Z,-0.18
2019-01-31T06:29:28.460Z,-0.19
2019-01-31T06:30:28.462Z,-0.14
2019-01-31T06:31:28.421Z,-0.18
2019-01-31T06:32:28.433Z,-0.15
2019-01-31T06:33:28.641Z,-0.25
2019-01-31T06:34:28.406Z,-0.15
2019-01-31T06:35:28.383Z,-0.26
2019-01-31T06:36:28.399Z,-0.29
2019-01-31T06:37:28.359Z,-0.25
2019-01-31T06:38:28.359Z,-0.31
2019-01-31T06:39:28.362Z,-0.28
2019-01-31T06:40:28.361Z,-0.28
2019-01-31T06:41:28.410Z,-0.28
2019-01-31T06:42:28.305Z,-0.28
2019-01-31T06:43:28.309Z,-0.31
2019-01-31T06:44:28.304Z,-0.36
2019-01-31T06:45:28.276Z,-0.25
2019-01-31T06:46:28.632Z,-0.29
2019-01-31T06:47:28.251Z,-0.33
2019-01-31T06:48:28.242Z,-0.33
2019-01-31T06:49:28.227Z,-0.31
2019-01-31T06:50:28.272Z,-0.31
2019-01-31T06:51:28.219Z,-0.36
2019-01-31T06:52:28.203Z,-0.28
2019-01-31T06:53:28.194Z,-0.36
2019-01-31T06:54:28.168Z,-0.31
2019-01-31T06:55:28.190Z,-0.33
2019-01-31T06:56:28.268Z,-0.25
2019-01-31T06:57:28.144Z,-0.25
2019-01-31T06:58:28.127Z,-0.36
2019-01-31T06:59:28.131Z,-0.26
2019-01-31T07:00:28.109Z,-0.19
2019-01-31T07:01:28.114Z,-0.18
2019-01-31T07:02:28.109Z,-0.28
2019-01-31T07:03:28.095Z,-0.18
2019-01-31T07:04:28.068Z,-0.16
2019-01-31T07:05:28.075Z,-0.26
2019-01-31T07:06:28.041Z,-0.11
2019-01-31T07:07:28.074Z,-0.15
2019-01-31T07:08:28.035Z,-0.16
2019-01-31T07:09:28.012Z,-0.18
2019-01-31T07:10:28.022Z,-0.21
2019-01-31T07:11:30.047Z,-0.18
2019-01-31T07:12:28.013Z,-0.15
2019-01-31T07:13:28.011Z,-0.16
2019-01-31T07:14:27.972Z,-0.18
2019-01-31T07:15:27.941Z,-0.19
2019-01-31T07:16:27.959Z,-0.15
2019-01-31T07:17:27.942Z,-0.19
2019-01-31T07:18:27.947Z,-0.11
2019-01-31T07:19:27.908Z,-0.15
2019-01-31T07:20:27.915Z,-0.11
2019-01-31T07:21:27.917Z,-0.14
2019-01-31T07:22:27.924Z,-0.07
2019-01-31T07:23:27.902Z,-0.08
2019-01-31T07:24:27.847Z,-0.15
2019-01-31T07:25:27.882Z,-0.08
2019-01-31T07:26:27.825Z,-0.07
2019-01-31T07:27:27.814Z,-0.04
2019-01-31T07:28:27.863Z,0.02
2019-01-31T07:29:27.806Z,0.03
2019-01-31T07:30:27.782Z,0.04
2019-01-31T07:31:27.791Z,-0.03
2019-01-31T07:32:27.779Z,-0.01
2019-01-31T07:33:27.779Z,0.02
2019-01-31T07:34:27.741Z,0.11
2019-01-31T07:35:27.788Z,0.04
2019-01-31T07:36:27.724Z,0.04
2019-01-31T07:37:27.712Z,0.18
2019-01-31T07:38:27.736Z,0.13
2019-01-31T07:39:27.689Z,0.10
2019-01-31T07:40:27.703Z,0.14
2019-01-31T07:41:27.695Z,0.07
2019-01-31T07:42:27.659Z,0.11
2019-01-31T07:43:27.672Z,0.11
2019-01-31T07:44:27.698Z,0.17
2019-01-31T07:45:27.645Z,0.21
2019-01-31T07:46:27.627Z,0.14
2019-01-31T07:47:27.602Z,0.18
2019-01-31T07:48:27.636Z,0.17
2019-01-31T07:49:27.577Z,0.24
2019-01-31T07:50:27.590Z,0.28
2019-01-31T07:51:27.596Z,0.15
2019-01-31T07:52:27.568Z,0.23
2019-01-31T07:53:27.554Z,0.18
2019-01-31T07:54:27.542Z,0.21
2019-01-31T07:55:27.520Z,0.24
2019-01-31T07:56:27.519Z,0.24
2019-01-31T07:57:27.529Z,0.15
2019-01-31T07:58:27.531Z,0.15
2019-01-31T07:59:27.503Z,0.15
2019-01-31T08:00:27.459Z,0.11
2019-01-31T08:01:27.460Z,0.14
2019-01-31T08:02:27.477Z,0.15
2019-01-31T08:03:27.446Z,0.15
2019-01-31T08:04:27.465Z,0.14
2019-01-31T08:05:27.414Z,0.10
2019-01-31T08:06:27.411Z,0.17
2019-01-31T08:07:28.792Z,0.11
2019-01-31T08:08:27.371Z,0.17
2019-01-31T08:09:27.410Z,0.20
2019-01-31T08:10:27.366Z,0.21
2019-01-31T08:11:27.379Z,0.20
2019-01-31T08:12:27.325Z,0.18
2019-01-31T08:13:27.333Z,0.18
2019-01-31T08:14:27.372Z,0.18
2019-01-31T08:15:27.303Z,0.15
2019-01-31T08:16:27.304Z,0.18
2019-01-31T08:17:27.309Z,0.11
2019-01-31T08:18:27.303Z,0.18
2019-01-31T08:19:27.353Z,0.08
2019-01-31T08:20:27.245Z,0.10
2019-01-31T08:21:27.255Z,0.13
2019-01-31T08:22:27.251Z,0.21
2019-01-31T08:23:27.212Z,0.17
2019-01-31T08:24:27.226Z,0.18
2019-01-31T08:25:27.218Z,0.15
2019-01-31T08:26:27.173Z,0.23
2019-01-31T08:27:27.194Z,0.21
2019-01-31T08:28:27.168Z,0.21
2019-01-31T08:29:27.152Z,0.28
2019-01-31T08:30:27.209Z,0.23
2019-01-31T08:31:27.125Z,0.36
2019-01-31T08:32:27.110Z,0.21
2019-01-31T08:33:28.507Z,0.26
2019-01-31T08:34:27.097Z,0.33
2019-01-31T08:35:27.115Z,0.21
2019-01-31T08:36:27.085Z,0.23
2019-01-31T08:37:27.067Z,0.20
2019-01-31T08:38:27.048Z,0.20
2019-01-31T08:39:27.057Z,0.31
2019-01-31T08:40:27.067Z,0.24
2019-01-31T08:41:27.039Z,0.23
2019-01-31T08:42:27.016Z,0.20
2019-01-31T08:43:27.028Z,0.21
2019-01-31T08:44:26.990Z,0.23
2019-01-31T08:45:26.969Z,0.31
2019-01-31T08:46:26.973Z,0.28
2019-01-31T08:47:26.965Z,0.21
2019-01-31T08:48:26.956Z,0.26
2019-01-31T08:49:26.937Z,0.23
2019-01-31T08:50:27.630Z,0.29
2019-01-31T08:51:26.929Z,0.29
2019-01-31T08:52:26.906Z,0.21
2019-01-31T08:53:26.890Z,0.17
2019-01-31T08:54:26.894Z,0.17
2019-01-31T08:55:26.911Z,0.20
2019-01-31T08:56:26.905Z,0.20
2019-01-31T08:57:26.870Z,0.28
2019-01-31T08:58:26.843Z,0.21
2019-01-31T08:59:26.817Z,0.24
2019-01-31T09:00:26.816Z,0.20
2019-01-31T09:01:26.817Z,0.21
2019-01-31T09:02:26.782Z,0.18
2019-01-31T09:03:26.773Z,0.15
2019-01-31T09:04:26.782Z,0.18
2019-01-31T09:05:26.763Z,0.13
2019-01-31T09:06:26.764Z,0.14
2019-01-31T09:07:29.195Z,0.00
2019-01-31T09:08:26.720Z,0.04
2019-01-31T09:09:26.710Z,0.10
2019-01-31T09:10:26.720Z,0.10
2019-01-31T09:11:26.690Z,0.08
2019-01-31T09:12:26.726Z,-0.01
2019-01-31T09:13:26.670Z,0.14
2019-01-31T09:14:26.659Z,-0.05
2019-01-31T09:15:26.668Z,0.00
2019-01-31T09:16:26.632Z,0.03
2019-01-31T09:17:26.640Z,0.03
2019-01-31T09:18:26.628Z,0.03
2019-01-31T09:19:26.622Z,0.04
2019-01-31T09:20:26.608Z,0.00
2019-01-31T09:21:26.580Z,0.00
2019-01-31T09:22:26.611Z,-0.10
2019-01-31T09:23:26.560Z,-0.03
2019-01-31T09:24:26.561Z,-0.10
2019-01-31T09:25:26.557Z,-0.11
2019-01-31T09:26:26.531Z,-0.07
2019-01-31T09:27:26.557Z,-0.03
2019-01-31T09:28:26.518Z,0.07
2019-01-31T09:29:26.509Z,0.07
2019-01-31T09:30:26.484Z,0.00
2019-01-31T09:31:26.484Z,-0.01
2019-01-31T09:32:26.483Z,0.08
2019-01-31T09:33:26.484Z,0.10
2019-01-31T09:34:26.465Z,0.03
2019-01-31T09:35:26.436Z,0.08
2019-01-31T09:36:26.439Z,0.21
2019-01-31T09:37:26.413Z,0.21
2019-01-31T09:38:26.417Z,0.15
2019-01-31T09:39:26.424Z,0.18
2019-01-31T09:40:26.382Z,0.17
2019-01-31T09:41:26.360Z,0.29
2019-01-31T09:42:26.982Z,0.23
2019-01-31T09:43:26.381Z,0.31
2019-01-31T09:44:26.330Z,0.31
2019-01-31T09:45:26.324Z,0.24
2019-01-31T09:46:26.328Z,0.23
2019-01-31T09:47:26.299Z,0.24
2019-01-31T09:48:26.309Z,0.29
2019-01-31T09:49:26.277Z,0.29
2019-01-31T09:50:28.134Z,0.32
2019-01-31T09:51:26.392Z,0.36
2019-01-31T09:52:26.254Z,0.38
2019-01-31T09:53:26.268Z,0.38
2019-01-31T09:54:26.298Z,0.44
2019-01-31T09:55:26.209Z,0.41
2019-01-31T09:56:26.212Z,0.46
2019-01-31T09:57:26.212Z,0.42
2019-01-31T09:58:28.019Z,0.44
2019-01-31T09:59:26.187Z,0.49
2019-01-31T10:00:27.534Z,0.51
2019-01-31T10:01:26.169Z,0.44
2019-01-31T10:02:26.135Z,0.50
2019-01-31T10:03:26.141Z,0.51
2019-01-31T10:04:26.138Z,0.55
2019-01-31T10:05:26.117Z,0.61
2019-01-31T10:06:26.126Z,0.62
2019-01-31T10:07:26.116Z,0.66
2019-01-31T10:08:26.090Z,0.65
2019-01-31T10:09:26.097Z,0.68
2019-01-31T10:10:26.152Z,0.62
2019-01-31T10:11:26.112Z,0.72
2019-01-31T10:12:37.426Z,0.72
2019-01-31T10:13:27.027Z,0.61
2019-01-31T10:14:26.052Z,0.55
2019-01-31T10:15:26.096Z,0.60
2019-01-31T10:16:25.990Z,0.66
2019-01-31T10:17:26.098Z,0.62
2019-01-31T10:18:25.969Z,0.65
2019-01-31T10:19:25.966Z,0.66
2019-01-31T10:20:25.985Z,0.68
2019-01-31T10:21:26.174Z,0.66
2019-01-31T10:22:26.038Z,0.66
2019-01-31T10:23:26.013Z,0.68
2019-01-31T10:24:25.947Z,0.68
2019-01-31T10:25:26.026Z,0.72
2019-01-31T10:26:25.870Z,0.69
2019-01-31T10:27:25.891Z,0.72
2019-01-31T10:28:25.877Z,0.75
2019-01-31T10:29:25.843Z,0.75
2019-01-31T10:30:25.848Z,0.78
2019-01-31T10:31:25.815Z,0.66
2019-01-31T10:32:25.815Z,0.69
2019-01-31T10:33:25.800Z,0.76
2019-01-31T10:34:25.791Z,0.76
2019-01-31T10:35:25.845Z,0.61
2019-01-31T10:36:25.778Z,0.68
2019-01-31T10:37:25.768Z,0.65
2019-01-31T10:38:25.753Z,0.70
2019-01-31T10:39:25.752Z,0.78
2019-01-31T10:40:25.756Z,0.60
2019-01-31T10:41:25.728Z,0.70
2019-01-31T10:42:25.718Z,0.66
2019-01-31T10:43:25.710Z,0.68
2019-01-31T10:44:25.692Z,0.78
2019-01-31T10:45:25.739Z,0.76
2019-01-31T10:46:25.670Z,0.68
2019-01-31T10:47:25.657Z,0.69
2019-01-31T10:48:25.632Z,0.70
2019-01-31T10:49:25.641Z,0.66
2019-01-31T10:50:25.612Z,0.79
2019-01-31T10:51:25.623Z,0.83
2019-01-31T10:52:25.593Z,0.68
2019-01-31T10:53:25.586Z,0.68
2019-01-31T10:54:25.596Z,0.84
2019-01-31T10:55:25.558Z,0.75
2019-01-31T10:56:25.568Z,0.62
2019-01-31T10:57:25.537Z,0.86
2019-01-31T10:58:25.604Z,0.72
2019-01-31T10:59:25.519Z,0.69
2019-01-31T11:00:25.513Z,0.69
2019-01-31T11:01:25.513Z,0.79
2019-01-31T11:02:25.492Z,0.61
2019-01-31T11:03:25.493Z,0.70
2019-01-31T11:04:25.467Z,0.76
2019-01-31T11:05:25.449Z,0.68
2019-01-31T11:06:25.456Z,0.72
2019-01-31T11:07:25.432Z,0.65
2019-01-31T11:08:25.419Z,0.76
2019-01-31T11:09:25.430Z,0.66
2019-01-31T11:10:25.426Z,0.68
2019-01-31T11:11:25.424Z,0.78
2019-01-31T11:12:25.412Z,0.73
2019-01-31T11:13:25.384Z,0.70
2019-01-31T11:14:25.352Z,0.66
2019-01-31T11:15:25.360Z,0.78
2019-01-31T11:16:25.353Z,0.68
2019-01-31T11:17:25.375Z,0.68
2019-01-31T11:18:25.328Z,0.65
2019-01-31T11:19:25.323Z,0.62
2019-01-31T11:20:25.311Z,0.61
2019-01-31T11:21:25.304Z,0.65
2019-01-31T11:22:25.307Z,0.65
2019-01-31T11:23:25.267Z,0.65
2019-01-31T11:24:25.269Z,0.73
2019-01-31T11:25:25.226Z,0.69
2019-01-31T11:26:25.221Z,0.62
2019-01-31T11:27:25.265Z,0.62
2019-01-31T11:28:25.221Z,0.66
2019-01-31T11:29:25.197Z,0.61
2019-01-31T11:30:25.227Z,0.58
2019-01-31T11:31:25.166Z,0.65
2019-01-31T11:32:25.172Z,0.62
2019-01-31T11:33:25.182Z,0.60
2019-01-31T11:34:32.681Z,0.70
2019-01-31T11:35:26.191Z,0.68
2019-01-31T11:36:25.121Z,0.70
2019-01-31T11:37:25.118Z,0.69
2019-01-31T11:38:25.137Z,0.76
2019-01-31T11:39:25.093Z,0.72
2019-01-31T11:40:25.090Z,0.75
2019-01-31T11:41:25.067Z,0.83
2019-01-31T11:42:25.073Z,0.83
2019-01-31T11:43:25.096Z,0.91
2019-01-31T11:44:25.032Z,0.93
2019-01-31T11:45:25.034Z,0.88
2019-01-31T11:46:25.019Z,0.96
2019-01-31T11:47:25.025Z,0.94
2019-01-31T11:48:25.027Z,1.05
2019-01-31T11:49:24.990Z,1.08
2019-01-31T11:50:24.994Z,1.09
2019-01-31T11:51:24.981Z,1.05
2019-01-31T11:52:24.962Z,1.12
2019-01-31T11:53:24.939Z,1.05
2019-01-31T11:54:24.963Z,1.02
2019-01-31T11:55:24.919Z,1.06
2019-01-31T11:56:24.896Z,1.00
2019-01-31T11:57:24.885Z,1.08
2019-01-31T11:58:24.896Z,1.12
2019-01-31T11:59:24.925Z,1.15
2019-01-31T12:00:24.867Z,1.12
2019-01-31T12:01:24.856Z,1.11
2019-01-31T12:02:24.846Z,1.14
2019-01-31T12:03:24.843Z,1.16
2019-01-31T12:04:24.853Z,1.16
2019-01-31T12:05:24.803Z,1.11
2019-01-31T12:06:24.795Z,1.14
2019-01-31T12:07:24.781Z,1.11
2019-01-31T12:08:24.775Z,1.23
2019-01-31T12:09:24.792Z,1.22
2019-01-31T12:10:24.751Z,1.12
2019-01-31T12:11:24.746Z,1.11
2019-01-31T12:12:24.718Z,1.15
2019-01-31T12:13:24.719Z,1.14
2019-01-31T12:14:24.729Z,1.06
2019-01-31T12:15:24.738Z,1.06
2019-01-31T12:16:24.672Z,1.15
2019-01-31T12:17:24.665Z,1.08
2019-01-31T12:18:24.662Z,1.11
2019-01-31T12:19:24.661Z,1.16
2019-01-31T12:20:24.668Z,1.20
2019-01-31T12:21:24.640Z,1.15
2019-01-31T12:22:24.627Z,1.12
2019-01-31T12:23:24.597Z,1.09
2019-01-31T12:24:24.623Z,1.15
2019-01-31T12:25:24.592Z,1.16
2019-01-31T12:26:24.581Z,1.09
2019-01-31T12:27:24.593Z,1.20
2019-01-31T12:28:24.548Z,1.27
2019-01-31T12:29:24.534Z,1.23
2019-01-31T12:30:24.558Z,1.26
2019-01-31T12:31:24.520Z,1.20
2019-01-31T12:32:24.522Z,1.29
2019-01-31T12:33:24.535Z,1.26
2019-01-31T12:34:24.492Z,1.29
2019-01-31T12:35:24.554Z,1.32
2019-01-31T12:36:24.463Z,1.24
2019-01-31T12:37:24.460Z,1.33
2019-01-31T12:38:24.443Z,1.29
2019-01-31T12:39:24.442Z,1.32
2019-01-31T12:40:24.442Z,1.34
2019-01-31T12:41:24.402Z,1.41
2019-01-31T12:42:24.402Z,1.36
2019-01-31T12:43:34.806Z,1.30
2019-01-31T12:44:25.389Z,1.33
2019-01-31T12:45:24.398Z,1.42
2019-01-31T12:46:24.356Z,1.42
2019-01-31T12:47:24.414Z,1.45
2019-01-31T12:48:24.343Z,1.41
2019-01-31T12:49:24.319Z,1.47
2019-01-31T12:50:24.449Z,1.42
2019-01-31T12:51:24.312Z,1.51
2019-01-31T12:52:24.287Z,1.54
2019-01-31T12:53:24.269Z,1.52
2019-01-31T12:54:24.271Z,1.62
2019-01-31T12:55:24.271Z,1.59
2019-01-31T12:56:24.268Z,1.54
2019-01-31T12:57:24.223Z,1.58
2019-01-31T12:58:33.291Z,1.60
2019-01-31T12:59:25.215Z,1.66
2019-01-31T13:00:24.288Z,1.60
2019-01-31T13:01:24.213Z,1.62
2019-01-31T13:02:24.167Z,1.63
2019-01-31T13:03:24.172Z,1.60
2019-01-31T13:04:24.182Z,1.63
2019-01-31T13:05:24.147Z,1.65
2019-01-31T13:06:24.150Z,1.50
2019-01-31T13:07:24.122Z,1.66
2019-01-31T13:08:24.124Z,1.69
2019-01-31T13:09:24.115Z,1.68
2019-01-31T13:10:24.084Z,1.63
2019-01-31T13:11:24.112Z,1.63
2019-01-31T13:12:24.058Z,1.62
2019-01-31T13:13:24.068Z,1.59
2019-01-31T13:14:24.042Z,1.62
2019-01-31T13:15:24.055Z,1.66
2019-01-31T13:16:24.034Z,1.63
2019-01-31T13:17:24.035Z,1.66
2019-01-31T13:18:24.048Z,1.66
2019-01-31T13:19:23.986Z,1.70
2019-01-31T13:20:23.984Z,1.66
2019-01-31T13:21:23.995Z,1.66
2019-01-31T13:22:23.990Z,1.65
2019-01-31T13:23:23.952Z,1.68
2019-01-31T13:24:23.943Z,1.65
2019-01-31T13:25:23.934Z,1.69
2019-01-31T13:26:23.945Z,1.66
2019-01-31T13:27:23.917Z,1.65
2019-01-31T13:28:23.894Z,1.66
2019-01-31T13:29:23.879Z,1.69
2019-01-31T13:30:23.879Z,1.68
2019-01-31T13:31:23.881Z,1.68
2019-01-31T13:32:23.883Z,1.59
2019-01-31T13:33:23.842Z,1.62
2019-01-31T13:34:23.859Z,1.70
2019-01-31T13:35:23.823Z,1.72
2019-01-31T13:36:23.813Z,1.68
2019-01-31T13:37:23.831Z,1.63
2019-01-31T13:38:23.799Z,1.68
2019-01-31T13:39:23.776Z,1.65
2019-01-31T13:40:23.771Z,1.70
2019-01-31T13:41:23.783Z,1.72
2019-01-31T13:42:23.807Z,1.69
2019-01-31T13:43:23.723Z,1.72
2019-01-31T13:44:23.727Z,1.79
2019-01-31T13:45:23.723Z,1.81
2019-01-31T13:46:23.741Z,1.87
2019-01-31T13:47:23.679Z,1.84
2019-01-31T13:48:23.725Z,1.81
2019-01-31T13:49:23.662Z,1.84
2019-01-31T13:50:23.680Z,1.83
2019-01-31T13:51:23.639Z,1.73
2019-01-31T13:52:23.650Z,1.72
2019-01-31T13:53:23.653Z,1.80
2019-01-31T13:54:23.631Z,1.79
2019-01-31T13:55:23.595Z,1.81
2019-01-31T13:56:23.611Z,1.73
2019-01-31T13:57:23.583Z,1.79
2019-01-31T13:58:23.594Z,1.76